Time;durP1;ratioP1;P1;durP2;ratioP2;P2;SDS_P1;SDS_P2;PMS_P1;PMS_P2;Temp;Humidity;BMP_temperature;BMP_pressure;BME280_temperature;BME280_humidity;BME280_pressure;Samples;Min_cycle;Max_cycle;Signal;HPM_P1;HPM_P2
2021/10/19 00:01:01;;;;;;;37.28;18.48;;;9.00;68.70;;;;;;5054998;28;20317;-37
2021/10/19 00:03:28;;;;;;;32.35;18.90;;;8.90;68.70;;;;;;5058198;28;20378;-36
2021/10/19 00:05:54;;;;;;;37.15;18.55;;;8.90;68.70;;;;;;5058690;28;20051;-38
2021/10/19 00:08:19;;;;;;;35.70;18.38;;;8.90;68.90;;;;;;5058524;28;20032;-37
2021/10/19 00:10:45;;;;;;;40.65;19.83;;;8.80;68.90;;;;;;5058560;28;20038;-35
2021/10/19 00:13:11;;;;;;;37.35;19.10;;;8.80;69.00;;;;;;5058506;28;20154;-36
2021/10/19 00:15:36;;;;;;;32.47;20.05;;;8.70;69.10;;;;;;5058175;28;20036;-38
2021/10/19 00:18:02;;;;;;;29.23;18.63;;;8.70;69.30;;;;;;5058522;28;20186;-35
2021/10/19 00:20:28;;;;;;;31.88;18.38;;;8.60;69.50;;;;;;5058330;28;20299;-38
2021/10/19 00:22:54;;;;;;;33.97;18.52;;;8.60;69.60;;;;;;5058277;28;20040;-35
2021/10/19 00:25:20;;;;;;;32.50;19.52;;;8.60;69.70;;;;;;5058120;28;20326;-37
2021/10/19 00:27:46;;;;;;;34.28;19.77;;;8.50;69.80;;;;;;5058265;28;20032;-35
2021/10/19 00:30:13;;;;;;;34.50;18.98;;;8.50;70.00;;;;;;5057624;28;20033;-35
2021/10/19 00:32:39;;;;;;;31.42;19.27;;;8.50;70.10;;;;;;5057832;28;20025;-35
2021/10/19 00:35:06;;;;;;;34.47;19.23;;;8.40;70.20;;;;;;5057713;28;20033;-35
2021/10/19 00:37:32;;;;;;;34.00;19.42;;;8.40;70.40;;;;;;5058099;28;20044;-38
2021/10/19 00:39:57;;;;;;;27.65;18.38;;;8.40;70.60;;;;;;5058058;28;20033;-36
2021/10/19 00:42:23;;;;;;;35.55;20.27;;;8.40;70.70;;;;;;5057853;28;20336;-35
2021/10/19 00:44:49;;;;;;;34.13;18.83;;;8.40;70.80;;;;;;5057637;28;20029;-35
2021/10/19 00:47:22;;;;;;;32.53;18.75;;;8.40;70.90;;;;;;5057698;28;20044;-35
2021/10/19 00:49:49;;;;;;;28.77;17.63;;;8.40;71.00;;;;;;5057886;28;20033;-37
2021/10/19 00:52:16;;;;;;;33.00;19.70;;;8.40;71.10;;;;;;5057820;28;20033;-38
2021/10/19 00:54:43;;;;;;;33.53;18.85;;;8.40;71.20;;;;;;5057762;28;20398;-38
2021/10/19 00:57:09;;;;;;;33.00;18.33;;;8.50;71.20;;;;;;5057403;28;20090;-38
2021/10/19 00:59:37;;;;;;;31.92;19.35;;;8.50;71.20;;;;;;5057716;28;20363;-38
2021/10/19 01:02:06;;;;;;;31.60;17.58;;;8.50;71.20;;;;;;5057600;28;20180;-36
2021/10/19 01:04:32;;;;;;;38.13;19.02;;;8.50;71.20;;;;;;5057253;28;20426;-35
2021/10/19 01:06:57;;;;;;;33.38;18.98;;;8.60;71.20;;;;;;5057409;28;20158;-36
2021/10/19 01:09:23;;;;;;;33.13;19.33;;;8.60;71.20;;;;;;5057241;28;20110;-35
2021/10/19 01:11:49;;;;;;;29.02;18.27;;;8.60;71.10;;;;;;5057127;28;20359;-38
2021/10/19 01:14:15;;;;;;;37.17;19.13;;;8.60;71.00;;;;;;5056640;28;20033;-36
2021/10/19 01:16:40;;;;;;;36.35;19.65;;;8.60;71.00;;;;;;5057244;28;20322;-37
2021/10/19 01:19:06;;;;;;;28.40;18.40;;;8.70;71.10;;;;;;5057249;28;20104;-35
2021/10/19 01:21:32;;;;;;;29.35;19.45;;;8.70;71.10;;;;;;5056750;28;20221;-38
2021/10/19 01:23:57;;;;;;;33.92;18.23;;;8.70;71.10;;;;;;5057226;28;20043;-39
2021/10/19 01:26:23;;;;;;;31.67;19.17;;;8.70;71.10;;;;;;5056433;28;20413;-38
2021/10/19 01:28:49;;;;;;;34.10;19.27;;;8.70;71.60;;;;;;5056931;28;20040;-35
2021/10/19 01:31:15;;;;;;;30.33;17.83;;;8.70;71.60;;;;;;5056712;28;20024;-36
2021/10/19 01:33:41;;;;;;;33.30;19.65;;;8.80;71.00;;;;;;5057246;28;20381;-36
2021/10/19 01:36:08;;;;;;;37.40;21.13;;;8.80;71.00;;;;;;5057005;28;20112;-35
2021/10/19 01:38:34;;;;;;;31.20;18.33;;;8.80;71.00;;;;;;5056590;28;20495;-36
2021/10/19 01:41:01;;;;;;;34.72;18.67;;;8.80;71.00;;;;;;5056656;28;20029;-36
2021/10/19 01:43:28;;;;;;;34.15;20.67;;;8.90;71.10;;;;;;5056828;28;20112;-36
2021/10/19 01:45:57;;;;;;;29.80;19.45;;;8.90;71.00;;;;;;5056507;28;20051;-36
2021/10/19 01:48:23;;;;;;;34.03;20.13;;;8.90;71.00;;;;;;5056700;28;20036;-39
2021/10/19 01:50:49;;;;;;;35.17;20.80;;;8.90;70.90;;;;;;5056854;28;20487;-36
2021/10/19 01:53:15;;;;;;;31.67;19.73;;;8.90;70.90;;;;;;5056683;28;20025;-36
2021/10/19 01:55:42;;;;;;;33.35;19.73;;;8.90;70.90;;;;;;5056121;28;20076;-36
2021/10/19 01:58:09;;;;;;;34.10;20.02;;;8.90;70.90;;;;;;5056583;28;20412;-38
2021/10/19 02:00:36;;;;;;;34.80;20.40;;;8.90;70.90;;;;;;5056337;28;20033;-39
2021/10/19 02:03:06;;;;;;;29.17;18.35;;;8.80;70.90;;;;;;5056398;28;20327;-36
2021/10/19 02:05:32;;;;;;;33.95;19.63;;;8.80;70.90;;;;;;5056241;28;20440;-36
2021/10/19 02:07:58;;;;;;;36.78;18.48;;;8.80;70.90;;;;;;5056349;28;20024;-35
2021/10/19 02:10:24;;;;;;;28.58;17.20;;;8.80;70.90;;;;;;5055871;28;20041;-38
2021/10/19 02:12:49;;;;;;;50.10;19.58;;;8.80;70.90;;;;;;5056220;28;20032;-35
2021/10/19 02:15:15;;;;;;;35.38;19.48;;;8.80;70.90;;;;;;5055919;28;20029;-38
2021/10/19 02:17:41;;;;;;;34.35;19.85;;;8.70;71.00;;;;;;5056217;28;20357;-36
2021/10/19 02:20:08;;;;;;;37.58;20.38;;;8.70;71.10;;;;;;5055816;28;20036;-35
2021/10/19 02:22:34;;;;;;;34.97;19.17;;;8.70;71.30;;;;;;5055892;28;20330;-37
2021/10/19 02:25:00;;;;;;;36.80;20.38;;;8.70;71.40;;;;;;5055099;28;20116;-36
2021/10/19 02:27:26;;;;;;;32.70;18.95;;;8.70;71.40;;;;;;5055881;28;20104;-38
2021/10/19 02:29:52;;;;;;;32.85;19.63;;;8.60;71.30;;;;;;5055673;28;20063;-36
2021/10/19 02:32:18;;;;;;;39.20;20.40;;;8.50;71.40;;;;;;5055556;28;20057;-36
2021/10/19 02:34:44;;;;;;;39.72;20.38;;;8.50;71.60;;;;;;5055860;28;20029;-37
2021/10/19 02:37:10;;;;;;;36.33;19.70;;;8.50;71.70;;;;;;5055811;28;20025;-39
2021/10/19 02:39:36;;;;;;;33.65;18.38;;;8.40;71.80;;;;;;5055553;28;20074;-39
2021/10/19 02:42:01;;;;;;;28.52;17.45;;;8.40;72.00;;;;;;5055314;28;20028;-36
2021/10/19 02:44:27;;;;;;;33.03;19.60;;;8.40;72.10;;;;;;5055582;28;20056;-38
2021/10/19 02:46:53;;;;;;;35.50;19.05;;;8.40;72.20;;;;;;5055714;28;20437;-36
2021/10/19 02:49:18;;;;;;;32.05;18.50;;;8.40;72.40;;;;;;5055586;28;20082;-39
2021/10/19 02:51:44;;;;;;;34.63;19.48;;;8.40;72.50;;;;;;5055599;28;20040;-38
2021/10/19 02:54:10;;;;;;;38.28;19.35;;;8.40;72.60;;;;;;5055337;28;20175;-36
2021/10/19 02:56:37;;;;;;;33.50;20.13;;;8.40;72.60;;;;;;5055313;28;20073;-38
2021/10/19 02:59:03;;;;;;;29.50;17.98;;;8.30;72.50;;;;;;5055835;28;20344;-38
2021/10/19 03:01:29;;;;;;;46.47;18.88;;;8.30;72.50;;;;;;5054921;28;20025;-36
2021/10/19 03:03:54;;;;;;;31.52;18.77;;;8.30;72.60;;;;;;5055662;28;20032;-37
2021/10/19 03:06:20;;;;;;;31.92;19.30;;;8.30;72.70;;;;;;5055098;28;20028;-36
2021/10/19 03:08:46;;;;;;;31.90;17.08;;;8.20;72.80;;;;;;5055492;28;20044;-38
2021/10/19 03:11:11;;;;;;;28.75;18.00;;;8.20;72.80;;;;;;5055267;28;20429;-39
2021/10/19 03:13:37;;;;;;;34.30;18.98;;;8.20;72.90;;;;;;5055508;28;20063;-38
2021/10/19 03:16:03;;;;;;;32.17;18.17;;;8.10;73.00;;;;;;5055193;28;20349;-36
2021/10/19 03:18:29;;;;;;;39.10;18.92;;;8.10;73.00;;;;;;5055493;28;20707;-35
2021/10/19 03:20:54;;;;;;;36.60;19.27;;;8.00;73.20;;;;;;5055480;28;20104;-36
2021/10/19 03:23:21;;;;;;;34.40;18.58;;;8.00;73.20;;;;;;5055398;28;20048;-38
2021/10/19 03:25:46;;;;;;;46.67;20.60;;;8.00;73.30;;;;;;5055407;28;20304;-35
2021/10/19 03:28:12;;;;;;;48.38;19.90;;;7.90;73.30;;;;;;5055312;28;20120;-36
2021/10/19 03:30:38;;;;;;;26.10;17.10;;;7.90;73.30;;;;;;5055140;28;20033;-38
2021/10/19 03:33:03;;;;;;;46.00;19.48;;;7.80;73.30;;;;;;5055353;28;20453;-36
2021/10/19 03:35:29;;;;;;;37.55;19.85;;;7.80;73.30;;;;;;5055419;28;20413;-38
2021/10/19 03:37:55;;;;;;;33.03;18.98;;;7.70;73.40;;;;;;5059229;28;20356;-39
2021/10/19 03:40:22;;;;;;;30.35;18.10;;;7.60;73.40;;;;;;5058786;28;20025;-35
2021/10/19 03:42:48;;;;;;;35.13;18.98;;;7.60;73.70;;;;;;5059096;28;20025;-38
2021/10/19 03:45:15;;;;;;;42.42;18.95;;;7.50;73.80;;;;;;5058617;28;20310;-39
2021/10/19 03:47:41;;;;;;;32.78;17.52;;;7.50;74.00;;;;;;5057797;28;20136;-36
2021/10/19 03:50:07;;;;;;;37.03;17.63;;;7.50;74.10;;;;;;5057500;28;20108;-35
2021/10/19 03:52:33;;;;;;;39.85;19.40;;;7.40;74.20;;;;;;5058822;28;20031;-38
2021/10/19 03:54:59;;;;;;;46.63;19.33;;;7.40;74.40;;;;;;5058872;28;20322;-36
2021/10/19 03:57:24;;;;;;;41.50;17.80;;;7.30;74.60;;;;;;5058622;28;20045;-36
2021/10/19 03:59:50;;;;;;;34.90;18.38;;;7.30;74.70;;;;;;5058391;28;20022;-36
2021/10/19 04:02:16;;;;;;;31.08;18.38;;;7.30;75.00;;;;;;5058571;28;20104;-38
2021/10/19 04:04:41;;;;;;;34.67;19.40;;;7.20;75.10;;;;;;5058258;28;20025;-38
2021/10/19 04:07:07;;;;;;;37.80;18.77;;;7.20;75.20;;;;;;5058430;28;20035;-36
2021/10/19 04:09:33;;;;;;;66.88;25.23;;;7.20;75.30;;;;;;5058065;28;20029;-35
2021/10/19 04:11:59;;;;;;;49.40;21.00;;;7.20;75.30;;;;;;5058231;28;20029;-35
2021/10/19 04:14:24;;;;;;;42.85;20.40;;;7.10;75.30;;;;;;5057939;28;20033;-38
2021/10/19 04:16:50;;;;;;;44.90;20.73;;;7.10;75.30;;;;;;5058128;28;20032;-39
2021/10/19 04:19:16;;;;;;;42.85;20.70;;;7.10;75.30;;;;;;5058361;28;20036;-39
2021/10/19 04:21:45;;;;;;;40.25;20.02;;;7.10;75.30;;;;;;5058192;28;20052;-36
2021/10/19 04:24:12;;;;;;;40.67;18.45;;;7.00;75.30;;;;;;5057595;28;20444;-39
2021/10/19 04:26:37;;;;;;;33.80;17.75;;;7.00;75.40;;;;;;5058130;28;20033;-38
2021/10/19 04:29:03;;;;;;;42.22;18.02;;;7.00;75.50;;;;;;5058039;28;20341;-39
2021/10/19 04:31:30;;;;;;;37.72;18.80;;;7.00;75.60;;;;;;5057490;28;20036;-35
2021/10/19 04:33:56;;;;;;;33.88;17.55;;;7.00;75.80;;;;;;5057857;28;20043;-39
2021/10/19 04:36:22;;;;;;;31.17;17.85;;;7.00;75.90;;;;;;5057633;28;20055;-38
2021/10/19 04:38:48;;;;;;;41.63;18.10;;;6.90;75.90;;;;;;5057827;28;20108;-38
2021/10/19 04:41:13;;;;;;;30.77;16.88;;;7.00;76.00;;;;;;5057448;28;20047;-35
2021/10/19 04:43:39;;;;;;;32.10;17.38;;;6.90;76.00;;;;;;5058059;28;20398;-38
2021/10/19 04:46:05;;;;;;;48.97;18.33;;;6.90;76.10;;;;;;5057273;28;20025;-34
2021/10/19 04:48:30;;;;;;;36.90;17.23;;;6.80;76.30;;;;;;5056611;28;20021;-35
2021/10/19 04:50:56;;;;;;;37.53;16.85;;;6.80;76.40;;;;;;5057434;28;20029;-37
2021/10/19 04:53:22;;;;;;;42.95;17.95;;;6.80;77.10;;;;;;5057824;28;20104;-35
2021/10/19 04:55:48;;;;;;;32.30;15.15;;;6.90;76.60;;;;;;5057126;28;20033;-35
2021/10/19 04:58:15;;;;;;;33.95;15.18;;;6.90;76.80;;;;;;5057624;28;20044;-34
2021/10/19 05:00:41;;;;;;;28.42;14.75;;;6.90;76.90;;;;;;5057555;28;20039;-35
2021/10/19 05:03:07;;;;;;;27.33;14.52;;;6.90;77.00;;;;;;5057408;28;20048;-35
2021/10/19 05:05:33;;;;;;;27.75;15.82;;;6.90;77.10;;;;;;5056892;28;20071;-39
2021/10/19 05:07:58;;;;;;;33.22;15.70;;;6.90;77.10;;;;;;5057528;28;20025;-39
2021/10/19 05:10:24;;;;;;;30.92;14.43;;;6.90;77.20;;;;;;5056932;28;20037;-38
2021/10/19 05:12:50;;;;;;;28.02;15.48;;;6.90;77.30;;;;;;5057334;28;20092;-34
2021/10/19 05:15:16;;;;;;;33.30;15.57;;;6.90;77.50;;;;;;5057120;28;20068;-38
2021/10/19 05:17:44;;;;;;;28.55;14.82;;;6.90;77.60;;;;;;5056949;28;20386;-38
2021/10/19 05:20:10;;;;;;;34.72;15.82;;;7.00;77.90;;;;;;5056706;28;20101;-38
2021/10/19 05:22:36;;;;;;;29.52;14.68;;;7.00;78.00;;;;;;5056870;28;20067;-37
2021/10/19 05:25:03;;;;;;;31.08;14.77;;;7.00;78.00;;;;;;5057008;28;20029;-36
2021/10/19 05:27:28;;;;;;;22.77;13.73;;;7.10;78.10;;;;;;5056978;28;20029;-34
2021/10/19 05:29:54;;;;;;;30.25;14.60;;;7.10;78.00;;;;;;5056820;28;20029;-34
2021/10/19 05:32:20;;;;;;;30.67;16.48;;;7.10;77.90;;;;;;5056659;28;20033;-38
2021/10/19 05:34:45;;;;;;;45.55;18.30;;;7.20;78.00;;;;;;5056713;28;20029;-38
2021/10/19 05:37:11;;;;;;;42.53;21.25;;;7.20;77.80;;;;;;5056811;28;20029;-35
2021/10/19 05:39:37;;;;;;;45.88;23.25;;;7.30;77.80;;;;;;5056559;28;20024;-38
2021/10/19 05:42:04;;;;;;;47.05;25.38;;;7.30;77.80;;;;;;5056162;28;20051;-34
2021/10/19 05:44:30;;;;;;;52.00;25.85;;;7.30;77.70;;;;;;5056291;28;20043;-36
2021/10/19 05:46:55;;;;;;;38.67;21.50;;;7.30;77.70;;;;;;5056249;28;20032;-35
2021/10/19 05:49:21;;;;;;;44.63;22.77;;;7.40;77.70;;;;;;5056104;28;20478;-34
2021/10/19 05:51:50;;;;;;;32.60;18.25;;;7.40;77.80;;;;;;5056229;28;20475;-38
2021/10/19 05:54:16;;;;;;;40.17;17.50;;;7.50;78.00;;;;;;5056225;28;20421;-34
2021/10/19 05:56:43;;;;;;;58.22;19.55;;;7.50;77.90;;;;;;5056080;28;20107;-34
2021/10/19 05:59:09;;;;;;;27.63;16.52;;;7.60;77.70;;;;;;5055767;28;20335;-34
2021/10/19 06:01:34;;;;;;;29.05;14.85;;;7.70;77.50;;;;;;5055573;28;20052;-37
2021/10/19 06:04:00;;;;;;;33.65;16.60;;;7.70;77.40;;;;;;5054948;28;20029;-34
2021/10/19 06:06:26;;;;;;;31.90;14.25;;;7.80;77.40;;;;;;5055407;28;20029;-34
2021/10/19 06:08:52;;;;;;;30.08;15.10;;;7.80;77.20;;;;;;5056118;28;20064;-38
2021/10/19 06:11:21;;;;;;;20.77;13.35;;;7.80;76.90;;;;;;5055634;28;20036;-35
2021/10/19 06:13:47;;;;;;;34.80;14.95;;;7.90;76.80;;;;;;5055818;28;20069;-35
2021/10/19 06:16:13;;;;;;;25.58;13.07;;;7.90;76.70;;;;;;5055920;28;20033;-39
2021/10/19 06:18:38;;;;;;;24.70;12.90;;;8.00;76.70;;;;;;5056139;28;20382;-34
2021/10/19 06:21:04;;;;;;;34.55;15.13;;;8.00;76.50;;;;;;5055776;28;20163;-38
2021/10/19 06:23:30;;;;;;;39.88;14.50;;;8.00;76.60;;;;;;5055981;28;20049;-35
2021/10/19 06:25:56;;;;;;;22.27;12.43;;;8.00;76.60;;;;;;5055461;28;20116;-37
2021/10/19 06:28:22;;;;;;;20.85;12.35;;;8.10;76.50;;;;;;5055654;28;20164;-38
2021/10/19 06:30:48;;;;;;;24.48;13.18;;;8.10;76.40;;;;;;5055530;28;20044;-35
2021/10/19 06:33:14;;;;;;;27.73;12.80;;;8.20;76.30;;;;;;5055746;28;20041;-37
2021/10/19 06:35:41;;;;;;;32.85;13.57;;;8.30;76.20;;;;;;5055552;28;20041;-35
2021/10/19 06:38:07;;;;;;;27.45;12.50;;;8.30;75.90;;;;;;5055495;28;20035;-34
2021/10/19 06:40:32;;;;;;;20.55;12.35;;;8.40;75.60;;;;;;5055496;28;20120;-35
2021/10/19 06:42:58;;;;;;;22.60;11.88;;;8.40;75.40;;;;;;5055665;28;20104;-38
2021/10/19 06:45:24;;;;;;;24.58;12.00;;;8.40;75.30;;;;;;5055285;28;20064;-35
2021/10/19 06:47:50;;;;;;;20.85;11.68;;;8.40;75.30;;;;;;5055657;28;20090;-35
2021/10/19 06:50:16;;;;;;;18.88;11.63;;;8.40;75.20;;;;;;5055157;28;20037;-37
2021/10/19 06:52:42;;;;;;;16.67;9.95;;;8.50;75.10;;;;;;5055546;28;20033;-35
2021/10/19 06:55:09;;;;;;;40.10;12.65;;;8.60;75.10;;;;;;5055138;28;20431;-38
2021/10/19 06:57:42;;;;;;;24.05;10.77;;;8.70;74.80;;;;;;5055293;28;20440;-34
2021/10/19 07:00:13;;;;;;;22.75;11.80;;;8.80;74.40;;;;;;5054907;28;20056;-34
2021/10/19 07:02:39;;;;;;;20.67;11.15;;;8.80;73.90;;;;;;5055399;28;20320;-35
2021/10/19 07:05:06;;;;;;;19.33;10.02;;;8.80;73.60;;;;;;5054812;28;20112;-38
2021/10/19 07:07:32;;;;;;;20.92;10.85;;;8.80;73.20;;;;;;5055055;28;20039;-38
2021/10/19 07:10:00;;;;;;;17.80;10.68;;;8.90;73.10;;;;;;5055283;28;20087;-35
2021/10/19 07:12:26;;;;;;;24.45;11.73;;;9.00;72.90;;;;;;5058599;28;20033;-39
2021/10/19 07:14:52;;;;;;;26.42;11.77;;;8.90;72.80;;;;;;5058939;28;20021;-35
2021/10/19 07:17:17;;;;;;;19.10;9.30;;;9.00;72.30;;;;;;5058861;28;20283;-36
2021/10/19 07:19:43;;;;;;;20.35;10.52;;;9.00;72.20;;;;;;5059264;28;20040;-37
2021/10/19 07:22:09;;;;;;;18.83;10.15;;;9.10;72.00;;;;;;5059002;28;20025;-36
2021/10/19 07:24:35;;;;;;;18.45;10.43;;;9.10;71.60;;;;;;5058790;28;20032;-36
2021/10/19 07:27:01;;;;;;;27.42;11.65;;;9.10;71.40;;;;;;5058737;28;20024;-36
2021/10/19 07:29:26;;;;;;;26.73;10.52;;;9.20;71.40;;;;;;5058549;28;20048;-39
2021/10/19 07:31:52;;;;;;;19.33;11.00;;;9.20;71.10;;;;;;5058941;28;20250;-38
2021/10/19 07:34:18;;;;;;;20.10;10.15;;;9.20;70.80;;;;;;5058366;28;20037;-39
2021/10/19 07:36:44;;;;;;;19.55;9.65;;;9.30;70.70;;;;;;5058922;28;20074;-36
2021/10/19 07:39:10;;;;;;;17.25;8.65;;;9.30;70.40;;;;;;5058795;28;20493;-35
2021/10/19 07:41:36;;;;;;;18.33;9.15;;;9.40;70.00;;;;;;5058759;28;20412;-39
2021/10/19 07:44:03;;;;;;;30.38;9.77;;;9.40;69.40;;;;;;5059106;28;20041;-36
2021/10/19 07:46:29;;;;;;;16.80;9.45;;;9.40;69.00;;;;;;5057047;28;20475;-39
2021/10/19 07:48:55;;;;;;;16.63;10.23;;;9.40;68.80;;;;;;5059005;28;20037;-39
2021/10/19 07:51:20;;;;;;;18.05;10.15;;;9.50;68.50;;;;;;5058009;28;20033;-36
2021/10/19 07:53:47;;;;;;;16.75;9.02;;;9.60;68.20;;;;;;5058779;28;20115;-35
2021/10/19 07:56:14;;;;;;;19.83;9.20;;;9.60;67.70;;;;;;5058049;28;20057;-35
2021/10/19 07:58:40;;;;;;;32.65;9.73;;;9.60;67.50;;;;;;5058560;28;20033;-36
2021/10/19 08:01:07;;;;;;;15.43;8.30;;;9.70;67.30;;;;;;5058495;28;20045;-38
2021/10/19 08:03:33;;;;;;;11.98;7.00;;;9.80;66.90;;;;;;5058577;28;20425;-36
2021/10/19 08:05:59;;;;;;;14.13;7.47;;;9.80;66.30;;;;;;5057968;28;20033;-35
2021/10/19 08:08:25;;;;;;;13.85;6.43;;;9.80;66.00;;;;;;5058375;28;20044;-35
2021/10/19 08:10:51;;;;;;;10.13;5.45;;;9.90;65.50;;;;;;5058200;28;20037;-37
2021/10/19 08:13:18;;;;;;;11.77;6.00;;;10.00;65.20;;;;;;5058315;28;20044;-38
2021/10/19 08:15:45;;;;;;;18.40;7.95;;;10.00;64.00;;;;;;5056817;28;20036;-35
2021/10/19 08:18:12;;;;;;;23.38;7.03;;;10.10;63.50;;;;;;5058106;28;20033;-39
2021/10/19 08:20:38;;;;;;;7.05;4.63;;;10.20;64.10;;;;;;5057956;28;20030;-35
2021/10/19 08:23:05;;;;;;;13.85;7.93;;;10.20;63.40;;;;;;5057207;28;20033;-39
2021/10/19 08:25:31;;;;;;;10.50;5.50;;;10.30;62.30;;;;;;5057848;28;20074;-39
2021/10/19 08:27:57;;;;;;;9.85;5.20;;;10.30;61.90;;;;;;5058193;28;20039;-36
2021/10/19 08:30:23;;;;;;;15.20;5.97;;;10.40;62.00;;;;;;5057931;28;20041;-36
2021/10/19 08:32:50;;;;;;;18.40;5.68;;;10.40;61.30;;;;;;5057644;28;20033;-39
2021/10/19 08:35:17;;;;;;;14.93;6.68;;;10.50;61.20;;;;;;5057409;28;20036;-39
2021/10/19 08:37:44;;;;;;;17.65;6.18;;;10.60;61.10;;;;;;5057781;28;20325;-39
2021/10/19 08:40:11;;;;;;;10.98;5.20;;;10.60;60.70;;;;;;5057717;28;20032;-36
2021/10/19 08:42:44;;;;;;;6.80;3.92;;;10.70;60.60;;;;;;5058049;28;20108;-37
2021/10/19 08:45:12;;;;;;;12.82;3.90;;;10.80;59.70;;;;;;5057680;28;20033;-35
2021/10/19 08:47:40;;;;;;;13.88;4.40;;;10.80;59.10;;;;;;5057654;28;20037;-35
2021/10/19 08:50:07;;;;;;;8.15;3.90;;;10.90;57.70;;;;;;5057654;28;20041;-35
2021/10/19 08:52:32;;;;;;;7.30;4.25;;;11.00;57.20;;;;;;5057087;28;20415;-39
2021/10/19 08:54:58;;;;;;;8.93;4.13;;;11.00;57.30;;;;;;5057546;28;20033;-39
2021/10/19 08:57:24;;;;;;;8.00;4.20;;;11.10;57.30;;;;;;5057226;28;20052;-35
2021/10/19 08:59:49;;;;;;;5.85;3.60;;;11.20;56.80;;;;;;5057261;28;20113;-38
2021/10/19 09:02:15;;;;;;;13.73;4.68;;;11.20;56.60;;;;;;5057296;28;20029;-37
2021/10/19 09:04:42;;;;;;;6.93;4.22;;;11.30;56.30;;;;;;5056013;28;20036;-34
2021/10/19 09:07:09;;;;;;;9.90;4.72;;;11.40;56.20;;;;;;5056714;28;20179;-37
2021/10/19 09:09:35;;;;;;;4.90;3.40;;;11.40;56.10;;;;;;5057161;28;20418;-35
2021/10/19 09:12:02;;;;;;;5.18;2.90;;;11.50;55.50;;;;;;5057343;28;20347;-39
2021/10/19 09:14:33;;;;;;;7.85;3.92;;;11.50;55.20;;;;;;5056848;28;20045;-35
2021/10/19 09:17:00;;;;;;;7.13;3.40;;;11.60;54.60;;;;;;5057034;28;20048;-35
2021/10/19 09:19:27;;;;;;;9.60;3.15;;;11.60;54.70;;;;;;5056920;28;20044;-36
2021/10/19 09:22:02;;;;;;;4.03;2.05;;;11.60;53.90;;;;;;5057050;28;20318;-39
2021/10/19 09:24:29;;;;;;;7.07;4.05;;;11.60;53.50;;;;;;5057072;28;20337;-39
2021/10/19 09:26:59;;;;;;;5.43;3.00;;;11.60;53.40;;;;;;5056933;28;20029;-39
2021/10/19 09:29:27;;;;;;;5.05;2.20;;;11.60;53.10;;;;;;5056649;28;20133;-36
2021/10/19 09:32:01;;;;;;;3.25;2.20;;;11.70;53.20;;;;;;5057071;28;20082;-36
2021/10/19 09:34:29;;;;;;;7.28;3.60;;;11.70;52.60;;;;;;5056230;28;20065;-36
2021/10/19 09:36:55;;;;;;;6.80;2.75;;;11.70;52.80;;;;;;5056617;28;20364;-35
2021/10/19 09:39:44;;;;;;;12.85;3.95;;;11.70;52.80;;;;;;5056656;28;20025;-39
2021/10/19 09:42:18;;;;;;;4.22;2.65;;;11.80;52.70;;;;;;5056162;28;20025;-35
2021/10/19 09:44:58;;;;;;;5.80;2.92;;;11.70;52.30;;;;;;5056459;28;20048;-37
2021/10/19 09:47:37;;;;;;;4.65;2.53;;;11.80;52.20;;;;;;5056455;28;20029;-36
2021/10/19 09:50:08;;;;;;;5.32;3.10;;;11.80;52.00;;;;;;5056302;28;20037;-39
2021/10/19 09:52:37;;;;;;;;;;;11.80;52.10;;;;;;5056372;28;20025;-36
2021/10/19 09:55:10;;;;;;;4.97;2.70;;;11.80;52.90;;;;;;5056271;28;19921;-39
2021/10/19 09:57:38;;;;;;;3.30;2.10;;;11.80;52.70;;;;;;5056208;28;20045;-39
2021/10/19 10:00:05;;;;;;;12.65;4.03;;;11.80;52.10;;;;;;5056011;28;20032;-39
2021/10/19 10:02:31;;;;;;;6.80;3.00;;;11.80;51.50;;;;;;5055582;28;20127;-35
2021/10/19 10:04:59;;;;;;;8.20;2.70;;;11.90;51.40;;;;;;5055636;28;20107;-36
2021/10/19 10:07:30;;;;;;;7.47;2.85;;;11.90;51.00;;;;;;5056005;28;20171;-36
2021/10/19 10:09:59;;;;;;;;;;;11.90;50.90;;;;;;5056424;28;20040;-36
2021/10/19 10:12:32;;;;;;;7.40;2.70;;;11.90;51.50;;;;;;5055909;28;19979;-37
2021/10/19 10:14:59;;;;;;;15.50;3.20;;;11.90;50.70;;;;;;5055795;28;20036;-36
2021/10/19 10:17:24;;;;;;;7.95;2.90;;;11.90;50.90;;;;;;5055609;28;20119;-35
2021/10/19 10:19:51;;;;;;;5.90;2.90;;;12.00;50.50;;;;;;5055595;28;20116;-36
2021/10/19 10:22:22;;;;;;;5.45;2.05;;;12.00;49.90;;;;;;5055843;28;20083;-35
2021/10/19 10:24:48;;;;;;;;;;;12.10;49.20;;;;;;5056348;28;20045;-36
2021/10/19 10:27:25;;;;;;;4.68;1.70;;;12.10;49.90;;;;;;5055631;28;19905;-39
2021/10/19 10:29:51;;;;;;;6.38;1.98;;;12.10;48.20;;;;;;5055444;28;20108;-39
2021/10/19 10:32:30;;;;;;;5.10;2.05;;;12.20;47.80;;;;;;5055478;28;20136;-35
2021/10/19 10:35:08;;;;;;;5.97;2.20;;;12.20;47.10;;;;;;5055330;28;20037;-39
2021/10/19 10:37:44;;;;;;;3.28;1.92;;;12.20;47.10;;;;;;5055653;28;20036;-39
2021/10/19 10:40:44;;;;;;;38.45;5.70;;;12.20;47.10;;;;;;5055660;28;20317;-35
2021/10/19 10:43:16;;;;;;;2.45;1.67;;;12.30;46.60;;;;;;5054242;28;20041;-39
2021/10/19 10:45:42;;;;;;;4.97;1.65;;;12.30;46.40;;;;;;5054821;28;20029;-38
2021/10/19 10:48:08;;;;;;;7.25;1.67;;;12.40;46.60;;;;;;5055434;28;20036;-38
2021/10/19 10:50:38;;;;;;;3.38;2.00;;;12.40;46.50;;;;;;5055587;28;20425;-37
2021/10/19 10:53:09;;;;;;;18.80;2.50;;;12.40;46.20;;;;;;5055614;28;20068;-40
2021/10/19 10:55:43;;;;;;;5.18;2.33;;;12.50;45.70;;;;;;5054905;28;20037;-38
2021/10/19 10:58:09;;;;;;;9.05;2.83;;;12.50;45.50;;;;;;5054120;28;20029;-39
2021/10/19 11:00:36;;;;;;;14.57;2.67;;;12.60;45.70;;;;;;5055276;28;20150;-39
2021/10/19 11:03:14;;;;;;;3.35;1.77;;;12.70;45.70;;;;;;5055330;28;20032;-39
2021/10/19 11:05:51;;;;;;;3.20;1.38;;;12.80;45.80;;;;;;5055038;28;20310;-35
2021/10/19 11:08:42;;;;;;;14.52;2.17;;;12.90;45.50;;;;;;5055301;28;20079;-38
2021/10/19 11:11:10;;;;;;;3.58;1.50;;;12.90;44.70;;;;;;5055073;28;20044;-39
2021/10/19 11:13:55;;;;;;;15.18;2.88;;;13.00;44.40;;;;;;5055436;28;20195;-39
2021/10/19 11:16:42;;;;;;;4.07;2.40;;;13.10;44.00;;;;;;5053450;28;20082;-38
2021/10/19 11:19:37;;;;;;;3.80;2.10;;;13.10;44.00;;;;;;5055562;28;20325;-35
2021/10/19 11:22:08;;;;;;;13.75;3.50;;;13.20;43.70;;;;;;5054405;28;20041;-36
2021/10/19 11:24:36;;;;;;;9.77;2.10;;;13.30;43.30;;;;;;5054944;28;20037;-36
2021/10/19 11:27:03;;;;;;;2.92;1.80;;;13.40;43.00;;;;;;5055024;28;20059;-37
2021/10/19 11:29:33;;;;;;;5.45;3.22;;;13.50;42.40;;;;;;5054779;28;20520;-39
2021/10/19 11:32:00;;;;;;;13.45;2.72;;;13.60;42.50;;;;;;5055041;28;20325;-36
2021/10/19 11:34:26;;;;;;;3.85;1.92;;;13.60;42.20;;;;;;5054863;28;20033;-38
2021/10/19 11:36:52;;;;;;;7.88;2.42;;;13.70;42.40;;;;;;5054883;28;20036;-39
2021/10/19 11:39:18;;;;;;;7.85;2.42;;;13.80;42.30;;;;;;5055179;28;20029;-39
2021/10/19 11:41:46;;;;;;;3.13;2.08;;;13.80;41.10;;;;;;5054583;28;20040;-35
2021/10/19 11:44:13;;;;;;;3.97;1.70;;;13.90;40.60;;;;;;5054810;28;20042;-38
2021/10/19 11:46:40;;;;;;;16.25;2.15;;;13.90;39.90;;;;;;5054432;28;20025;-36
2021/10/19 11:49:17;;;;;;;4.88;2.50;;;14.00;39.70;;;;;;5054706;28;20482;-38
2021/10/19 11:51:44;;;;;;;6.70;2.83;;;14.00;40.00;;;;;;5054634;28;20049;-35
2021/10/19 11:54:10;;;;;;;7.88;3.35;;;14.10;39.70;;;;;;5054465;28;20418;-36
2021/10/19 11:56:36;;;;;;;3.92;1.60;;;14.20;39.70;;;;;;5054655;28;20045;-40
2021/10/19 11:59:06;;;;;;;6.95;2.58;;;14.30;39.10;;;;;;5058675;28;20377;-39
2021/10/19 12:01:40;;;;;;;7.80;3.10;;;14.40;38.70;;;;;;5058397;28;20024;-35
2021/10/19 12:04:12;;;;;;;7.47;2.63;;;14.50;38.10;;;;;;5058010;28;20029;-37
2021/10/19 12:06:45;;;;;;;4.55;2.55;;;14.60;37.70;;;;;;5058267;28;20095;-38
2021/10/19 12:09:19;;;;;;;7.03;2.65;;;14.70;38.10;;;;;;5058330;28;20056;-36
2021/10/19 12:11:49;;;;;;;6.05;2.60;;;14.80;38.10;;;;;;5058415;28;20125;-37
2021/10/19 12:14:15;;;;;;;7.33;2.33;;;15.00;38.10;;;;;;5057850;28;20130;-39
2021/10/19 12:16:41;;;;;;;9.10;3.53;;;15.10;37.30;;;;;;5057994;28;20261;-38
2021/10/19 12:19:07;;;;;;;7.57;3.28;;;15.20;37.60;;;;;;5058195;28;20029;-39
2021/10/19 12:21:33;;;;;;;4.32;2.33;;;15.40;37.30;;;;;;5057371;28;20029;-36
2021/10/19 12:24:02;;;;;;;11.35;2.70;;;15.50;37.50;;;;;;5057855;28;20065;-37
2021/10/19 12:26:30;;;;;;;15.52;2.78;;;15.70;37.20;;;;;;5057314;28;20032;-40
2021/10/19 12:29:00;;;;;;;3.03;1.92;;;15.80;36.90;;;;;;5058032;28;20048;-39
2021/10/19 12:31:26;;;;;;;10.35;2.10;;;15.90;36.50;;;;;;5057773;28;20033;-35
2021/10/19 12:34:05;;;;;;;5.45;2.45;;;16.00;36.20;;;;;;5057792;28;20225;-36
2021/10/19 12:36:34;;;;;;;4.72;1.70;;;16.10;34.90;;;;;;5057391;28;20051;-39
2021/10/19 12:39:05;;;;;;;7.40;2.38;;;16.10;35.30;;;;;;5057831;28;20329;-39
2021/10/19 12:41:35;;;;;;;3.03;1.40;;;16.30;35.20;;;;;;5057138;28;20021;-36